Time;durP1;ratioP1;P1;durP2;ratioP2;P2;SDS_P1;SDS_P2;PMS_P1;PMS_P2;Temp;Humidity;BMP_temperature;BMP_pressure;BME280_temperature;BME280_humidity;BME280_pressure;Samples;Min_cycle;Max_cycle;Signal;HPM_P1;HPM_P2
2023/03/07 00:00:30;;;;;;;;;;;3.30;99.90;;;;;;5010105;28;19925;-80
2023/03/07 00:02:56;;;;;;;;;;;3.30;99.90;;;;;;5012289;28;20024;-80
2023/03/07 00:05:21;;;;;;;;;;;3.30;99.90;;;;;;4986481;28;19944;-80
2023/03/07 00:07:47;;;;;;;;;;;3.30;99.90;;;;;;5015539;28;19925;-80
2023/03/07 00:10:12;;;;;;;;;;;3.30;99.90;;;;;;4985058;28;19921;-80
2023/03/07 00:12:38;;;;;;;;;;;3.40;99.90;;;;;;4996280;28;19922;-81
2023/03/07 00:15:04;;;;;;;;;;;3.40;99.90;;;;;;4997875;28;20304;-83
2023/03/07 00:17:29;;;;;;;;;;;3.40;99.90;;;;;;4979802;28;19922;-80
2023/03/07 00:19:55;;;;;;;;;;;3.40;99.90;;;;;;4971279;28;19921;-80
2023/03/07 00:22:21;;;;;;;;;;;3.30;99.90;;;;;;4974906;28;19969;-81
2023/03/07 00:24:47;;;;;;;;;;;3.30;99.90;;;;;;4992615;28;19976;-81
2023/03/07 00:27:13;;;;;;;;;;;3.30;99.90;;;;;;5005439;28;20278;-81
2023/03/07 00:29:39;;;;;;;;;;;3.30;99.90;;;;;;4976842;28;19922;-82
2023/03/07 00:32:04;;;;;;;;;;;3.30;99.90;;;;;;5004851;28;20112;-81
2023/03/07 00:34:30;;;;;;;;;;;3.30;99.90;;;;;;5024781;28;19932;-81
2023/03/07 00:36:55;;;;;;;;;;;3.30;99.90;;;;;;4986241;28;19925;-80
2023/03/07 00:39:21;;;;;;;;;;;3.40;99.90;;;;;;5023957;28;19925;-80
2023/03/07 00:41:46;;;;;;;;;;;3.40;99.90;;;;;;4978857;28;20278;-81
2023/03/07 00:44:12;;;;;;;;;;;3.40;99.90;;;;;;4976352;28;19929;-81
2023/03/07 00:46:37;;;;;;;;;;;3.40;99.90;;;;;;4978839;28;19922;-81
2023/03/07 00:49:03;;;;;;;;;;;3.40;99.90;;;;;;4965715;28;20016;-81
2023/03/07 00:51:28;;;;;;;;;;;3.40;99.90;;;;;;4995249;28;19929;-81
2023/03/07 00:53:54;;;;;;;;;;;3.40;99.90;;;;;;5006931;28;19925;-81
2023/03/07 00:56:21;;;;;;;;;;;3.30;99.90;;;;;;4963612;28;19921;-81
2023/03/07 00:58:46;;;;;;;;;;;3.30;99.90;;;;;;4985360;28;19929;-81
2023/03/07 01:01:13;;;;;;;;;;;3.30;99.90;;;;;;4995735;28;20032;-81
2023/03/07 01:03:39;;;;;;;;;;;3.20;99.90;;;;;;4990358;28;19944;-80
2023/03/07 01:06:05;;;;;;;;;;;3.20;99.90;;;;;;4966269;28;19921;-82
2023/03/07 01:08:31;;;;;;;;;;;3.30;99.90;;;;;;4990045;28;19921;-81
2023/03/07 01:11:00;;;;;;;;;;;3.30;99.90;;;;;;4981132;28;19932;-81
2023/03/07 01:13:26;;;;;;;;;;;3.40;99.90;;;;;;4985284;28;20408;-81
2023/03/07 01:15:52;;;;;;;;;;;3.40;99.90;;;;;;4995446;28;19922;-82
2023/03/07 01:18:17;;;;;;;;;;;3.40;99.90;;;;;;4977827;28;19976;-82
2023/03/07 01:20:43;;;;;;;;;;;3.40;99.90;;;;;;5005073;28;19926;-82
2023/03/07 01:23:08;;;;;;;;;;;3.40;99.90;;;;;;5005827;28;20373;-82
2023/03/07 01:25:41;;;;;;;;;;;3.40;99.90;;;;;;4993518;28;19929;-82
2023/03/07 01:28:07;;;;;;;;;;;3.50;99.90;;;;;;5009417;28;20348;-81
2023/03/07 01:30:32;;;;;;;;;;;3.40;99.90;;;;;;5003939;28;19925;-81
2023/03/07 01:32:59;;;;;;;;;;;3.50;99.90;;;;;;4978286;28;19925;-81
2023/03/07 01:35:25;;;;;;;;;;;3.50;99.90;;;;;;5011647;28;19921;-80
2023/03/07 01:37:51;;;;;;;;;;;3.50;99.90;;;;;;5012320;28;19964;-81
2023/03/07 01:40:17;;;;;;;;;;;3.50;99.90;;;;;;5002991;28;20293;-80
2023/03/07 01:42:43;;;;;;;;;;;3.50;99.90;;;;;;4982830;28;19926;-81
2023/03/07 01:45:11;;;;;;;;;;;3.50;99.90;;;;;;4995563;28;19967;-81
2023/03/07 01:47:37;;;;;;;;;;;3.50;99.90;;;;;;4994829;28;19922;-80
2023/03/07 01:50:05;;;;;;;;;;;3.40;99.90;;;;;;5006237;28;19928;-83
2023/03/07 01:52:33;;;;;;;;;;;3.40;99.90;;;;;;4995314;28;19925;-81
2023/03/07 01:55:05;;;;;;;;;;;3.30;99.90;;;;;;4993941;28;19922;-81
2023/03/07 01:57:35;;;;;;;;;;;3.20;99.90;;;;;;4976083;28;19930;-80
2023/03/07 02:00:07;;;;;;;;;;;3.20;99.90;;;;;;4995920;28;19925;-81
2023/03/07 02:02:34;;;;;;;;;;;3.10;99.90;;;;;;4999917;28;19961;-80
2023/03/07 02:05:06;;;;;;;;;;;3.10;99.90;;;;;;4978371;28;19921;-80
2023/03/07 02:07:34;;;;;;;;;;;3.10;99.90;;;;;;5016784;28;19960;-81
2023/03/07 02:10:00;;;;;;;;;;;3.10;99.90;;;;;;4990337;28;19921;-81
2023/03/07 02:12:26;;;;;;;;;;;3.10;99.90;;;;;;4993596;28;20388;-81
2023/03/07 02:14:51;;;;;;;;;;;3.10;99.90;;;;;;4983995;28;19961;-81
2023/03/07 02:17:17;;;;;;;;;;;3.10;99.90;;;;;;5005551;28;20443;-81
2023/03/07 02:20:04;;;;;;;;;;;3.10;99.90;;;;;;4974639;28;19925;-80
2023/03/07 02:22:29;;;;;;;;;;;3.10;99.90;;;;;;4975694;28;19925;-81
2023/03/07 02:24:58;;;;;;;;;;;3.10;99.90;;;;;;5022444;28;19922;-81
2023/03/07 02:27:24;;;;;;;;;;;3.00;99.90;;;;;;4977759;28;19949;-81
2023/03/07 02:29:50;;;;;;;;;;;3.10;99.90;;;;;;4996446;28;19972;-80
2023/03/07 02:32:16;;;;;;;;;;;3.00;99.90;;;;;;4986472;28;19957;-81
2023/03/07 02:34:41;;;;;;;;;;;3.00;99.90;;;;;;4983197;28;19922;-82
2023/03/07 02:37:10;;;;;;;;;;;3.00;99.90;;;;;;4991547;28;19921;-81
2023/03/07 02:39:37;;;;;;;;;;;2.90;99.90;;;;;;4992076;28;20335;-81
2023/03/07 02:42:05;;;;;;;;;;;2.90;99.90;;;;;;4977660;28;20270;-81
2023/03/07 02:44:31;;;;;;;;;;;2.90;99.90;;;;;;4980139;28;19967;-81
2023/03/07 02:46:56;;;;;;;;;;;2.90;99.90;;;;;;4972154;28;19921;-81
2023/03/07 02:49:22;;;;;;;;;;;2.90;99.90;;;;;;4990885;28;19932;-81
2023/03/07 02:51:48;;;;;;;;;;;3.00;99.90;;;;;;4982273;28;19926;-81
2023/03/07 02:54:13;;;;;;;;;;;3.00;99.90;;;;;;4977713;28;19929;-81
2023/03/07 02:56:39;;;;;;;;;;;3.00;99.90;;;;;;4981968;28;20384;-81
2023/03/07 02:59:04;;;;;;;;;;;3.00;99.90;;;;;;4987176;28;19925;-81
2023/03/07 03:01:30;;;;;;;;;;;3.00;99.90;;;;;;5006162;28;19984;-81
2023/03/07 03:03:56;;;;;;;;;;;2.90;99.90;;;;;;4973031;28;19922;-81
2023/03/07 03:06:21;;;;;;;;;;;2.90;99.90;;;;;;4976445;28;19928;-81
2023/03/07 03:08:47;;;;;;;;;;;2.90;99.90;;;;;;5000647;28;20383;-81
2023/03/07 03:11:14;;;;;;;;;;;2.80;99.90;;;;;;4992792;28;19922;-81
2023/03/07 03:13:40;;;;;;;;;;;2.80;99.90;;;;;;4992015;28;20030;-80
2023/03/07 03:16:06;;;;;;;;;;;2.70;99.90;;;;;;4999658;28;19922;-81
2023/03/07 03:18:31;;;;;;;;;;;2.70;99.90;;;;;;5009363;28;19925;-80
2023/03/07 03:20:57;;;;;;;;;;;2.70;99.90;;;;;;4997901;28;20289;-81
2023/03/07 03:23:22;;;;;;;;;;;2.70;99.90;;;;;;4975875;28;19921;-81
2023/03/07 03:26:10;;;;;;;;;;;2.70;99.90;;;;;;4982852;28;20321;-81
2023/03/07 03:28:36;;;;;;;;;;;2.70;99.90;;;;;;5017577;28;19976;-80
2023/03/07 03:31:04;;;;;;;;;;;2.60;99.90;;;;;;4996101;28;20316;-80
2023/03/07 03:33:30;;;;;;;;;;;2.60;99.90;;;;;;4992128;28;20004;-80
2023/03/07 03:35:56;;;;;;;;;;;2.60;99.90;;;;;;5001339;28;19921;-80
2023/03/07 03:38:22;;;;;;;;;;;2.60;99.90;;;;;;5020259;28;19948;-81
2023/03/07 03:40:48;;;;;;;;;;;2.50;99.90;;;;;;4991458;28;19921;-80
2023/03/07 03:43:13;;;;;;;;;;;2.50;99.90;;;;;;4991868;28;20501;-80
2023/03/07 03:45:39;;;;;;;;;;;2.60;99.90;;;;;;5009537;28;20028;-80
2023/03/07 03:48:05;;;;;;;;;;;2.60;99.90;;;;;;4985550;28;20440;-80
2023/03/07 03:50:30;;;;;;;;;;;2.60;99.90;;;;;;4965354;28;19925;-80
2023/03/07 03:52:56;;;;;;;;;;;2.60;99.90;;;;;;4988802;28;19980;-80
2023/03/07 03:55:21;;;;;;;;;;;2.60;99.90;;;;;;5008472;28;19930;-81
2023/03/07 03:57:47;;;;;;;;;;;2.60;99.90;;;;;;4968352;28;20443;-81
2023/03/07 04:00:14;;;;;;;;;;;2.60;99.90;;;;;;4975475;28;20001;-81
2023/03/07 04:02:39;;;;;;;;;;;2.60;99.90;;;;;;4992707;28;20375;-81
2023/03/07 04:05:05;;;;;;;;;;;2.60;99.90;;;;;;4992461;28;20008;-81
2023/03/07 04:07:31;;;;;;;;;;;2.60;99.90;;;;;;5024485;28;20574;-80
2023/03/07 04:09:56;;;;;;;;;;;2.60;99.90;;;;;;4986439;28;20062;-81
2023/03/07 04:12:22;;;;;;;;;;;2.60;99.90;;;;;;4988296;28;19922;-81
2023/03/07 04:14:47;;;;;;;;;;;2.70;99.90;;;;;;4972665;28;20421;-80
2023/03/07 04:17:13;;;;;;;;;;;2.70;99.90;;;;;;4995710;28;20297;-81
2023/03/07 04:19:38;;;;;;;;;;;2.70;99.90;;;;;;5011255;28;20008;-81
2023/03/07 04:22:04;;;;;;;;;;;2.70;99.90;;;;;;5002738;28;19929;-81
2023/03/07 04:24:29;;;;;;;;;;;2.70;99.90;;;;;;5002825;28;19921;-81
2023/03/07 04:26:55;;;;;;;;;;;2.70;99.90;;;;;;4988728;28;20032;-81
2023/03/07 04:29:20;;;;;;;;;;;2.70;99.90;;;;;;4979248;28;20377;-81
2023/03/07 04:31:46;;;;;;;;;;;2.60;99.90;;;;;;4980508;28;19925;-80
2023/03/07 04:34:11;;;;;;;;;;;2.60;99.90;;;;;;4986389;28;19921;-80
2023/03/07 04:36:37;;;;;;;;;;;2.60;99.90;;;;;;4991688;28;20290;-80
2023/03/07 04:39:02;;;;;;;;;;;2.60;99.90;;;;;;4984740;28;20424;-80
2023/03/07 04:41:28;;;;;;;;;;;2.60;99.90;;;;;;4991933;28;20606;-80
2023/03/07 04:43:54;;;;;;;;;;;2.70;99.90;;;;;;5001124;28;19930;-81
2023/03/07 04:46:19;;;;;;;;;;;2.60;99.90;;;;;;4987335;28;19926;-81
2023/03/07 04:48:45;;;;;;;;;;;2.70;99.90;;;;;;4998297;28;20009;-81
2023/03/07 04:51:11;;;;;;;;;;;2.70;99.90;;;;;;4986783;28;19975;-81
2023/03/07 04:53:36;;;;;;;;;;;2.70;99.90;;;;;;4989202;28;19929;-81
2023/03/07 04:56:04;;;;;;;;;;;2.70;99.90;;;;;;4989140;28;19975;-81
2023/03/07 04:58:30;;;;;;;;;;;2.70;99.90;;;;;;4990335;28;19976;-80
2023/03/07 05:00:56;;;;;;;;;;;2.70;99.90;;;;;;4995191;28;19975;-81
2023/03/07 05:03:21;;;;;;;;;;;2.70;99.90;;;;;;5004747;28;19968;-81
2023/03/07 05:05:47;;;;;;;;;;;2.70;99.90;;;;;;5006010;28;19928;-80
2023/03/07 05:08:12;;;;;;;;;;;2.70;99.90;;;;;;4997230;28;19936;-81
2023/03/07 05:10:38;;;;;;;;;;;2.60;99.90;;;;;;4985113;28;19928;-81
2023/03/07 05:13:04;;;;;;;;;;;2.60;99.90;;;;;;4995520;28;20340;-82
2023/03/07 05:15:29;;;;;;;;;;;2.50;99.90;;;;;;4978842;28;20415;-81
2023/03/07 05:17:55;;;;;;;;;;;2.50;99.90;;;;;;4985648;28;19925;-81
2023/03/07 05:20:22;;;;;;;;;;;2.50;99.90;;;;;;4978132;28;19967;-81
2023/03/07 05:22:47;;;;;;;;;;;2.40;99.90;;;;;;4995138;28;19996;-81
2023/03/07 05:25:13;;;;;;;;;;;2.50;99.90;;;;;;4985736;28;19922;-81
2023/03/07 05:27:39;;;;;;;;;;;2.50;99.90;;;;;;5009894;28;19960;-81
2023/03/07 05:30:04;;;;;;;;;;;2.50;99.90;;;;;;4989565;28;19921;-82
2023/03/07 05:32:30;;;;;;;;;;;2.50;99.90;;;;;;4986358;28;19990;-80
2023/03/07 05:34:56;;;;;;;;;;;2.50;99.90;;;;;;4986214;28;19927;-81
2023/03/07 05:37:21;;;;;;;;;;;2.60;99.90;;;;;;4995161;28;19931;-82
2023/03/07 05:39:50;;;;;;;;;;;2.60;99.90;;;;;;4983042;28;19922;-81
2023/03/07 05:42:15;;;;;;;;;;;2.60;99.90;;;;;;5008420;28;20511;-81
2023/03/07 05:44:41;;;;;;;;;;;2.60;99.90;;;;;;4996300;28;19973;-81
2023/03/07 05:47:07;;;;;;;;;;;2.60;99.90;;;;;;5005462;28;19921;-81
2023/03/07 05:49:32;;;;;;;;;;;2.70;99.90;;;;;;4988810;28;19922;-83
2023/03/07 05:51:58;;;;;;;;;;;2.70;99.90;;;;;;4968098;28;19941;-82
2023/03/07 05:54:23;;;;;;;;;;;2.70;99.90;;;;;;4983497;28;20554;-83
2023/03/07 05:56:49;;;;;;;;;;;2.70;99.90;;;;;;4982717;28;19930;-82
2023/03/07 05:59:14;;;;;;;;;;;2.70;99.90;;;;;;4989897;28;19933;-82
2023/03/07 06:01:40;;;;;;;;;;;2.70;99.90;;;;;;4981597;28;20293;-82
2023/03/07 06:04:06;;;;;;;;;;;2.70;99.90;;;;;;4981701;28;20377;-82
2023/03/07 06:06:31;;;;;;;;;;;2.70;99.90;;;;;;4984650;28;19926;-80
2023/03/07 06:08:57;;;;;;;;;;;2.70;99.90;;;;;;4972953;28;19926;-80
2023/03/07 06:11:22;;;;;;;;;;;2.80;99.90;;;;;;4999060;28;19929;-83
2023/03/07 06:13:48;;;;;;;;;;;2.70;99.90;;;;;;4980454;28;19926;-81
2023/03/07 06:16:13;;;;;;;;;;;2.70;99.90;;;;;;5007635;28;19936;-81
2023/03/07 06:18:39;;;;;;;;;;;2.70;99.90;;;;;;5014505;28;19988;-81
2023/03/07 06:21:06;;;;;;;;;;;2.60;99.90;;;;;;4995917;28;20278;-82
2023/03/07 06:23:33;;;;;;;;;;;2.50;99.90;;;;;;4964512;28;19921;-83
2023/03/07 06:25:59;;;;;;;;;;;2.40;99.90;;;;;;4973794;28;19928;-82
2023/03/07 06:28:24;;;;;;;;;;;2.40;99.90;;;;;;4962354;28;19926;-82
2023/03/07 06:30:50;;;;;;;;;;;2.40;99.90;;;;;;4988846;28;19922;-82
2023/03/07 06:33:16;;;;;;;;;;;2.40;99.90;;;;;;4969563;28;20449;-82
2023/03/07 06:35:42;;;;;;;;;;;2.30;99.90;;;;;;4973329;28;19929;-81
2023/03/07 06:38:09;;;;;;;;;;;2.30;99.90;;;;;;4980107;28;19972;-82
2023/03/07 06:40:34;;;;;;;;;;;2.30;99.90;;;;;;4982871;28;19929;-82
2023/03/07 06:43:00;;;;;;;;;;;2.30;99.90;;;;;;4969899;28;19921;-82
2023/03/07 06:45:29;;;;;;;;;;;2.40;99.90;;;;;;4977418;28;19921;-81
2023/03/07 06:47:54;;;;;;;;;;;2.40;99.90;;;;;;4982349;28;20424;-81
2023/03/07 06:50:20;;;;;;;;;;;2.30;99.90;;;;;;4990153;28;19948;-82
2023/03/07 06:52:47;;;;;;;;;;;2.40;99.90;;;;;;4993278;28;19968;-81
2023/03/07 06:55:13;;;;;;;;;;;2.40;99.90;;;;;;4989533;28;20445;-81
2023/03/07 06:57:38;;;;;;;;;;;2.30;99.90;;;;;;4980400;28;20020;-82
2023/03/07 07:00:05;;;;;;;;;;;2.40;99.90;;;;;;4967001;28;19925;-82
2023/03/07 07:02:31;;;;;;;;;;;2.40;99.90;;;;;;4965802;28;20333;-78
2023/03/07 07:04:57;;;;;;;;;;;2.40;99.90;;;;;;4982544;28;20012;-80
2023/03/07 07:07:23;;;;;;;;;;;2.40;99.90;;;;;;4983759;28;19928;-79
2023/03/07 07:09:48;;;;;;;;;;;2.50;99.90;;;;;;5001077;28;19929;-79
2023/03/07 07:12:14;;;;;;;;;;;2.50;99.90;;;;;;5011150;28;19925;-80
2023/03/07 07:14:39;;;;;;;;;;;2.60;99.90;;;;;;5011107;28;20282;-80
2023/03/07 07:17:05;;;;;;;;;;;2.60;99.90;;;;;;4989007;28;19973;-80
2023/03/07 07:19:30;;;;;;;;;;;2.60;99.90;;;;;;4987505;28;19921;-81
2023/03/07 07:21:56;;;;;;;;;;;2.60;99.90;;;;;;4972768;28;19921;-81
2023/03/07 07:24:22;;;;;;;;;;;2.70;99.90;;;;;;4986349;28;19929;-81
2023/03/07 07:26:48;;;;;;;;;;;2.70;99.90;;;;;;5000598;28;20408;-80
2023/03/07 07:29:14;;;;;;;;;;;2.80;99.90;;;;;;5008920;28;19929;-81
2023/03/07 07:31:40;;;;;;;;;;;2.80;99.90;;;;;;4960810;28;19964;-81
2023/03/07 07:34:06;;;;;;;;;;;2.90;99.90;;;;;;5002115;28;20007;-81
2023/03/07 07:36:33;;;;;;;;;;;2.90;99.90;;;;;;4974945;28;19983;-81
2023/03/07 07:39:01;;;;;;;;;;;2.90;99.90;;;;;;4981963;28;19976;-81
2023/03/07 07:41:27;;;;;;;;;;;3.00;99.90;;;;;;4977866;28;20292;-81
2023/03/07 07:43:52;;;;;;;;;;;3.00;99.90;;;;;;4984728;28;19933;-81
2023/03/07 07:46:19;;;;;;;;;;;3.00;99.90;;;;;;4978735;28;20294;-81
2023/03/07 07:48:45;;;;;;;;;;;3.00;99.90;;;;;;5007837;28;19929;-81
2023/03/07 07:51:11;;;;;;;;;;;3.10;99.90;;;;;;4976068;28;20304;-81
2023/03/07 07:53:37;;;;;;;;;;;3.20;99.90;;;;;;4990255;28;19921;-81
2023/03/07 07:56:02;;;;;;;;;;;3.20;99.90;;;;;;4980324;28;19921;-81
2023/03/07 07:58:28;;;;;;;;;;;3.20;99.90;;;;;;4975041;28;19922;-82
2023/03/07 08:00:53;;;;;;;;;;;3.30;99.90;;;;;;4993700;28;19926;-82
2023/03/07 08:03:19;;;;;;;;;;;3.30;99.90;;;;;;4996850;28;19929;-82
2023/03/07 08:05:47;;;;;;;;;;;3.30;99.90;;;;;;4998771;28;20011;-83
2023/03/07 08:08:16;;;;;;;;;;;3.40;99.90;;;;;;4999741;28;19921;-82
2023/03/07 08:10:43;;;;;;;;;;;3.40;99.90;;;;;;4998538;28;20007;-81
2023/03/07 08:13:12;;;;;;;;;;;3.50;99.90;;;;;;5003275;28;19930;-82
2023/03/07 08:15:38;;;;;;;;;;;3.40;99.90;;;;;;5004178;28;19955;-81
2023/03/07 08:18:04;;;;;;;;;;;3.40;99.90;;;;;;4991851;28;19930;-81
2023/03/07 08:20:29;;;;;;;;;;;3.50;99.90;;;;;;5020583;28;19921;-82
2023/03/07 08:22:55;;;;;;;;;;;3.40;99.90;;;;;;4983362;28;20297;-82
2023/03/07 08:25:22;;;;;;;;;;;3.40;99.90;;;;;;4991943;28;20385;-83
2023/03/07 08:27:51;;;;;;;;;;;3.40;99.90;;;;;;4992376;28;20440;-83
2023/03/07 08:30:18;;;;;;;;;;;3.50;99.90;;;;;;4987267;28;19977;-82
2023/03/07 08:32:43;;;;;;;;;;;3.60;99.90;;;;;;4994702;28;19932;-82
2023/03/07 08:35:09;;;;;;;;;;;3.60;99.90;;;;;;4978868;28;19922;-82
2023/03/07 08:37:35;;;;;;;;;;;3.60;99.90;;;;;;4992837;28;19961;-83
2023/03/07 08:40:00;;;;;;;;;;;3.70;99.90;;;;;;4994912;28;19926;-82
2023/03/07 08:42:26;;;;;;;;;;;3.70;99.90;;;;;;4991077;28;19921;-82
2023/03/07 08:44:51;;;;;;;;;;;3.80;99.90;;;;;;4991580;28;20012;-82
2023/03/07 08:47:17;;;;;;;;;;;3.80;99.90;;;;;;4973733;28;19921;-83
2023/03/07 08:49:42;;;;;;;;;;;3.80;99.90;;;;;;4976158;28;20316;-83
2023/03/07 08:52:08;;;;;;;;;;;3.90;99.90;;;;;;5004082;28;19929;-82
2023/03/07 08:54:33;;;;;;;;;;;3.90;99.90;;;;;;5002178;28;19925;-83
2023/03/07 08:56:59;;;;;;;;;;;3.90;99.90;;;;;;4980645;28;19922;-82
2023/03/07 08:59:25;;;;;;;;;;;4.00;99.90;;;;;;4979623;28;19932;-81
2023/03/07 09:01:50;;;;;;;;;;;4.10;99.90;;;;;;4987347;28;19941;-81
2023/03/07 09:04:16;;;;;;;;;;;4.10;99.90;;;;;;5001195;28;20388;-83
2023/03/07 09:06:41;;;;;;;;;;;4.20;99.90;;;;;;4993438;28;19921;-82
2023/03/07 09:09:07;;;;;;;;;;;4.10;99.90;;;;;;5000873;28;19921;-82
2023/03/07 09:11:32;;;;;;;;;;;4.20;99.90;;;;;;4993980;28;19940;-82
2023/03/07 09:13:58;;;;;;;;;;;4.10;99.90;;;;;;4992738;28;20381;-79
2023/03/07 09:16:23;;;;;;;;;;;4.00;99.90;;;;;;4994421;28;19976;-78
2023/03/07 09:18:49;;;;;;;;;;;4.00;99.90;;;;;;4988982;28;19921;-81
2023/03/07 09:21:15;;;;;;;;;;;3.90;99.90;;;;;;4964054;28;19929;-81
2023/03/07 09:23:41;;;;;;;;;;;3.90;99.90;;;;;;4990584;28;19929;-82
2023/03/07 09:26:07;;;;;;;;;;;3.90;99.90;;;;;;4991497;28;19921;-82
2023/03/07 09:28:32;;;;;;;;;;;4.00;99.90;;;;;;4975357;28;19925;-81
2023/03/07 09:30:58;;;;;;;;;;;4.00;99.90;;;;;;5001151;28;19937;-82
2023/03/07 09:33:23;;;;;;;;;;;4.10;99.90;;;;;;5010381;28;19932;-81
2023/03/07 09:35:49;;;;;;;;;;;4.20;99.90;;;;;;5012862;28;19925;-81
2023/03/07 09:38:14;;;;;;;;;;;4.10;99.90;;;;;;4977594;28;19922;-81
2023/03/07 09:40:42;;;;;;;;;;;4.10;99.90;;;;;;5000660;28;20267;-81
2023/03/07 09:43:19;;;;;;;;;;;4.10;99.90;;;;;;4993645;28;20452;-81
2023/03/07 09:45:50;;;;;;;;;;;4.10;99.90;;;;;;4981270;28;20344;-81
2023/03/07 09:48:27;;;;;;;;;;;4.20;99.90;;;;;;5001081;28;19932;-82
2023/03/07 09:51:02;;;;;;;;;;;4.30;99.90;;;;;;4993111;28;19924;-82
2023/03/07 09:53:48;;;;;;;;;;;4.40;99.90;;;;;;4992107;28;20042;-82
2023/03/07 09:56:24;;;;;;;;;;;4.50;99.90;;;;;;4987536;28;19929;-82
2023/03/07 09:59:01;;;;;;;;;;;4.50;99.90;;;;;;4993690;28;20332;-82
2023/03/07 10:01:29;;;;;;;;;;;4.60;99.90;;;;;;4994226;28;19932;-82
2023/03/07 10:04:05;;;;;;;;;;;4.70;99.90;;;;;;4991639;28;20488;-80
2023/03/07 10:06:39;;;;;;;;;;;5.00;99.90;;;;;;5016341;28;19928;-79
2023/03/07 10:09:06;;;;;;;;;;;5.10;99.90;;;;;;4989951;28;19925;-78
2023/03/07 10:11:50;;;;;;;;;;;5.10;99.90;;;;;;5010964;28;19921;-80
2023/03/07 10:14:35;;;;;;;;;;;5.30;99.90;;;;;;4975825;28;19976;-81
2023/03/07 10:17:03;;;;;;;;;;;5.40;99.90;;;;;;4991542;28;19928;-81
2023/03/07 10:19:37;;;;;;;;;;;5.40;99.90;;;;;;4993419;28;19925;-79
2023/03/07 10:22:08;;;;;;;;;;;5.30;99.90;;;;;;4981358;28;19926;-78
2023/03/07 10:24:36;;;;;;;;;;;5.30;99.90;;;;;;5007447;28;19933;-80
2023/03/07 10:27:06;;;;;;;;;;;5.20;99.90;;;;;;4999569;28;19929;-79
2023/03/07 10:29:39;;;;;;;;;;;5.10;99.90;;;;;;4994223;28;19921;-80
2023/03/07 10:32:13;;;;;;;;;;;5.30;99.90;;;;;;4985046;28;19922;-79
2023/03/07 10:34:39;;;;;;;;;;;5.90;99.90;;;;;;4987356;28;19929;-78
2023/03/07 10:37:18;;;;;;;;;;;6.50;99.90;;;;;;5010579;28;20424;-78
2023/03/07 10:39:44;;;;;;;;;;;7.10;99.90;;;;;;4988279;28;20012;-80
2023/03/07 10:42:10;;;;;;;;;;;7.90;99.90;;;;;;4990333;28;20333;-81
2023/03/07 10:44:36;;;;;;;;;;;8.20;99.90;;;;;;4994867;28;19922;-81
2023/03/07 10:47:02;;;;;;;;;;;8.20;99.90;;;;;;4984410;28;19926;-78
2023/03/07 10:49:31;;;;;;;;;;;8.10;99.90;;;;;;5009044;28;20016;-77
2023/03/07 10:52:00;;;;;;;;;;;8.40;99.90;;;;;;4992459;28;19932;-78
2023/03/07 10:54:30;;;;;;;;;;;9.00;99.90;;;;;;4988386;28;19928;-79
2023/03/07 10:57:02;;;;;;;;;;;8.90;99.90;;;;;;4984235;28;20393;-79
2023/03/07 10:59:28;;;;;;;;;;;8.60;99.90;;;;;;4980781;28;19921;-80
2023/03/07 11:01:55;;;;;;;;;;;8.80;99.90;;;;;;4992223;28;20392;-80
2023/03/07 11:04:22;;;;;;;;;;;9.60;99.90;;;;;;4993940;28;19929;-81
2023/03/07 11:06:51;;;;;;;;;;;10.20;99.90;;;;;;5001964;28;19960;-80
2023/03/07 11:09:17;;;;;;;;;;;10.20;99.90;;;;;;4974999;28;19925;-80
2023/03/07 11:12:06;;;;;;;;;;;10.30;99.90;;;;;;4991995;28;19980;-79
2023/03/07 11:14:51;;;;;;;;;;;10.70;99.90;;;;;;4983657;28;19932;-80
2023/03/07 11:17:20;;;;;;;;;;;10.70;99.90;;;;;;5001249;28;19921;-80
2023/03/07 11:19:47;;;;;;;;;;;10.20;99.90;;;;;;4984331;28;19932;-81
2023/03/07 11:22:18;;;;;;;;;;;9.70;99.90;;;;;;4991957;28;19921;-80
2023/03/07 11:24:50;;;;;;;;;;;9.10;99.90;;;;;;4991831;28;19972;-80
2023/03/07 11:27:24;;;;;;;;;;;8.90;99.90;;;;;;4976670;28;19925;-81
2023/03/07 11:30:04;;;;;;;;;;;8.90;99.80;;;;;;4971404;28;19922;-81
2023/03/07 11:32:30;;;;;;;;;;;8.90;99.90;;;;;;5005830;28;19957;-81
2023/03/07 11:34:58;;;;;;;;;;;9.10;99.90;;;;;;5010136;28;19956;-81
2023/03/07 11:37:32;;;;;;;;;;;10.00;99.00;;;;;;5010058;28;21727;-81
2023/03/07 11:40:17;;;;;;;;;;;10.50;98.50;;;;;;4984085;28;20415;-81
2023/03/07 11:43:05;;;;;;;;;;;10.40;97.30;;;;;;4990460;28;20007;-82
2023/03/07 11:45:37;;;;;;;;;;;11.10;97.50;;;;;;4951270;28;19933;-81
2023/03/07 11:48:02;;;;;;;;;;;11.40;92.30;;;;;;5002544;28;20298;-82
2023/03/07 11:50:29;;;;;;;;;;;11.70;92.00;;;;;;4990758;28;19940;-81
2023/03/07 11:53:01;;;;;;;;;;;11.70;91.30;;;;;;4991160;28;19980;-81
2023/03/07 11:55:42;;;;;;;;;;;11.50;90.90;;;;;;4999102;28;19932;-81
2023/03/07 11:58:22;;;;;;;;;;;11.10;90.30;;;;;;5007112;28;19972;-82
2023/03/07 12:01:01;;;;;;;;;;;10.50;91.10;;;;;;5002322;28;20266;-82
2023/03/07 12:03:29;;;;;;;;;;;10.10;92.50;;;;;;4988045;28;19979;-83
2023/03/07 12:05:57;;;;;;;;;;;9.70;92.10;;;;;;5013597;28;19972;-81
2023/03/07 12:08:29;;;;;;;;;;;9.70;92.80;;;;;;4976931;28;20388;-83
2023/03/07 12:11:19;;;;;;;;;;;10.20;94.30;;;;;;5012517;28;19925;-82
2023/03/07 12:13:57;;;;;;;;;;;10.90;91.40;;;;;;5013771;28;19975;-82
2023/03/07 12:16:26;;;;;;;;;;;11.70;91.70;;;;;;5000790;28;19952;-82
2023/03/07 12:18:55;;;;;;;;;;;12.30;84.70;;;;;;4993638;28;20016;-83
2023/03/07 12:21:31;;;;;;;;;;;12.40;78.30;;;;;;4976887;28;19932;-83
2023/03/07 12:24:06;;;;;;;;;;;12.80;81.20;;;;;;4993182;28;19925;-82
2023/03/07 12:26:32;;;;;;;;;;;13.40;74.50;;;;;;5005739;28;19925;-82
2023/03/07 12:29:01;;;;;;;;;;;13.80;79.20;;;;;;4991057;28;19964;-83
2023/03/07 12:31:33;;;;;;;;;;;14.30;76.80;;;;;;5001214;28;19932;-80
2023/03/07 12:34:08;;;;;;;;;;;14.80;71.80;;;;;;4999092;28;19937;-77
2023/03/07 12:36:52;;;;;;;;;;;14.70;68.70;;;;;;5002953;28;19926;-78
2023/03/07 12:39:21;;;;;;;;;;;14.10;67.20;;;;;;4998542;28;19977;-78
2023/03/07 12:41:56;;;;;;;;;;;14.40;69.10;;;;;;5001932;28;19929;-82
2023/03/07 12:44:39;;;;;;;;;;;14.60;65.30;;;;;;4974896;28;19925;-82
2023/03/07 12:47:23;;;;;;;;;;;14.50;66.60;;;;;;4987145;28;20033;-82
2023/03/07 12:49:59;;;;;;;;;;;14.20;64.90;;;;;;4984812;28;19930;-82
2023/03/07 12:52:34;;;;;;;;;;;14.30;65.40;;;;;;4967082;28;20428;-81
2023/03/07 12:55:26;;;;;;;;;;;14.70;64.90;;;;;;4994097;28;20016;-82
2023/03/07 12:58:06;;;;;;;;;;;14.30;63.40;;;;;;4937517;28;20415;-82
2023/03/07 13:00:34;;;;;;;;;;;13.60;66.40;;;;;;4990364;28;19948;-82
2023/03/07 13:03:05;;;;;;;;;;;13.70;75.30;;;;;;4995813;28;19929;-82
2023/03/07 13:05:33;;;;;;;;;;;13.20;77.90;;;;;;4973022;28;19926;-82
2023/03/07 13:07:59;;;;;;;;;;;12.10;77.70;;;;;;5006329;28;19979;-82
2023/03/07 13:10:25;;;;;;;;;;;11.70;84.00;;;;;;4971085;28;19968;-82
2023/03/07 13:12:51;;;;;;;;;;;11.20;88.00;;;;;;4994428;28;20011;-82
2023/03/07 13:15:17;;;;;;;;;;;10.50;89.90;;;;;;4989060;28;19933;-82
2023/03/07 13:17:42;;;;;;;;;;;9.90;92.30;;;;;;4995814;28;19926;-82
2023/03/07 13:20:14;;;;;;;;;;;10.20;95.60;;;;;;4978925;28;19968;-82
2023/03/07 13:22:40;;;;;;;;;;;10.70;95.30;;;;;;5015654;28;19932;-82
2023/03/07 13:25:23;;;;;;;;;;;10.70;93.00;;;;;;4985016;28;19926;-81
2023/03/07 13:27:59;;;;;;;;;;;10.10;92.20;;;;;;5013220;28;19929;-81
2023/03/07 13:30:27;;;;;;;;;;;9.20;93.90;;;;;;4994116;28;19925;-82
2023/03/07 13:32:55;;;;;;;;;;;8.60;97.70;;;;;;5007262;28;20068;-82
2023/03/07 13:35:27;;;;;;;;;;;8.20;99.90;;;;;;4989969;28;19933;-82
2023/03/07 13:37:56;;;;;;;;;;;8.90;99.90;;;;;;4975016;28;20305;-82
2023/03/07 13:40:27;;;;;;;;;;;10.30;99.90;;;;;;4977013;28;19925;-82
2023/03/07 13:42:53;;;;;;;;;;;11.60;99.90;;;;;;4994980;28;19929;-82
2023/03/07 13:45:37;;;;;;;;;;;11.70;99.40;;;;;;4993524;28;19972;-82
2023/03/07 13:48:23;;;;;;;;;;;11.00;98.20;;;;;;5007308;28;20021;-82
2023/03/07 13:50:52;;;;;;;;;;;10.10;99.60;;;;;;4953663;28;20777;-82
2023/03/07 13:53:19;;;;;;;;;;;9.80;99.90;;;;;;4977884;28;19929;-82
2023/03/07 13:55:46;;;;;;;;;;;10.50;99.90;;;;;;4987178;28;19933;-83
2023/03/07 13:58:29;;;;;;;;;;;11.20;99.70;;;;;;5022504;28;20519;-82
2023/03/07 14:00:59;;;;;;;;;;;11.40;96.70;;;;;;4996958;28;19925;-82
2023/03/07 14:03:29;;;;;;;;;;;11.40;95.10;;;;;;5022352;28;19936;-82
2023/03/07 14:05:57;;;;;;;;;;;11.20;95.20;;;;;;4975886;28;19931;-81
2023/03/07 14:08:24;;;;;;;;;;;11.00;94.80;;;;;;4993227;28;19925;-82
2023/03/07 14:10:50;;;;;;;;;;;11.00;94.90;;;;;;5001887;28;19940;-81
2023/03/07 14:13:26;;;;;;;;;;;10.70;94.50;;;;;;4979470;28;19929;-82
2023/03/07 14:15:54;;;;;;;;;;;10.60;93.70;;;;;;4998599;28;19929;-82
2023/03/07 14:18:32;;;;;;;;;;;10.50;95.20;;;;;;4997424;28;20000;-82
2023/03/07 14:21:05;;;;;;;;;;;10.70;96.20;;;;;;5013245;28;19929;-82
2023/03/07 14:23:50;;;;;;;;;;;11.00;95.10;;;;;;4993553;28;19979;-82
2023/03/07 14:26:32;;;;;;;;;;;11.10;94.10;;;;;;4984926;28;19968;-82
2023/03/07 14:28:58;;;;;;;;;;;11.30;94.20;;;;;;4997073;28;19934;-82
2023/03/07 14:31:25;;;;;;;;;;;11.00;92.90;;;;;;4990750;28;20301;-82
2023/03/07 14:33:52;;;;;;;;;;;10.40;93.70;;;;;;4985253;28;19944;-83